AirNav   Phillips 66 Aviation Fuel
 
 1463 users online  

32WN Bowman Airstrip Ultralight Flightpark
Suring, Wisconsin, USA


FAA INFORMATION EFFECTIVE 20 JULY 2017

Location

FAA Identifier: 32WN
Lat/Long: 45-05-58.5800N / 088-25-11.0400W
45-05.976333N / 088-25.184000W
45.0996056 / -88.4197333
(estimated)
Elevation: 840 ft. / 256 m (estimated)
From city: 7 miles S of SURING, WI
Time zone: UTC -5 (UTC -6 during Standard Time)
Zip code: 54174

Ultralight Flight Park Operations

Ultralight Flight Park use: Private use. Permission required prior to landing
Activation date: 07/2009
Control tower: no
ARTCC: MINNEAPOLIS CENTER
FSS: GREEN BAY FLIGHT SERVICE STATION
Attendance: UNATNDD
Wind indicator: yes
Segmented circle: no

Ultralight Flight Park Communications

WX AWOS-3 at EZS (20 nm S): 118.65 (715-526-2967)

Nearby radio navigation aids

VOR radial/distance  VOR name  Freq  Var
MNMr262/33.1MENOMINEE VOR/DME109.6000E
GRBr343/34.0GREEN BAY VORTAC115.5001E

Ultralight Flight Park Services

Runway Information

Runway 9U/27U

Dimensions: 800 x 80 ft. / 244 x 24 m
Surface: turf, in fair condition
RUNWAY 9U  RUNWAY 27U
Traffic pattern: leftleft
Obstructions: none30 ft. pline, 400 ft. from runway

Ultralight Flight Park Ownership and Management from official FAA records

Ownership: Privately-owned
Owner: KEVIN BOWMAN
11632 STATE HWY 32
SURING, WI 54174
Phone 920-842-2353
Manager: KEVIN BOWMAN
11632 STATE HWY 32
SURING, WI 54174
Phone 920-842-2353

Ultralight Flight Park Operational Statistics

Aircraft based on the field: 2
Single engine airplanes: 1
Ultralights: 1
    

Instrument Procedures

There are no published instrument procedures at 32WN.

Some nearby airports with instrument procedures:

KEZS - Shawano Municipal Airport (20 nm S)
KOCQ - Oconto-J Douglas Bake Municipal Airport (26 nm SE)
KAIG - Langlade County Airport (29 nm W)
KCLI - Clintonville Municipal Airport (32 nm SW)
KMNM - Menominee-Marinette Twin County Airport (33 nm E)
 
Loc | Ops | Rwys | IFR | FBO | Links
Com | Nav | Svcs | Stats | Notes


 
Aerial photo
WARNING: Photo may not be current or correct
Aerial photo of 32WN (Bowman Airstrip Ultralight Flightpark)
Photo taken 03-Jul-2005
looking south.

Do you have a better or more recent aerial photo of Bowman Airstrip Ultralight Flightpark that you would like to share? If so, please send us your photo.

 
Sectional chart

 
Airport distance calculator
Flying to Bowman Airstrip Ultralight Flightpark? Find the distance to fly.

From to 32WN

Sunrise and sunset
Times for 21-Jul-2017
 Local
(UTC-5)
 Zulu
(UTC)
Morning civil twilight04:5209:52
Sunrise05:2810:28
Sunset20:3201:32
Evening civil twilight21:0802:08

Current date and time
Zulu (UTC)  21-Jul-2017 20:19:58
Local (UTC-5)  21-Jul-2017 15:19:58
 
METAR
KEZS 
20nm S 
211950Z AUTO 22006KT 10SM CLR 28/19 A2995 RMK AO2 T02800193
KOCQ 
26nm SE 
211955Z AUTO 22004KT 10SM CLR 28/20 A2994 RMK AO1 T02820197
KAIG 
31nm W 
211955Z AUTO 21006KT 10SM CLR 26/18 A2998 RMK AO2 T02590176
KCLI 
33nm SW 
211955Z AUTO 23005KT 10SM CLR 26/19 A2996 RMK AO2
KMNM 
34nm E 
211956Z AUTO 23005KT 10SM CLR 29/18 A2994 RMK AO2 SLP149 T02940183 $
KGRB 
39nm S 
211953Z 21004KT 10SM CLR 26/21 A2996 RMK AO2 SLP142 T02560211
TAF
KGRB 
39nm S 
211733Z 2118/2218 18005KT P6SM SCT120 BKN200 FM212200 16007KT P6SM BKN120 FM220000 15006KT P6SM VCSH OVC090 FM220500 14006KT 5SM -SHRA BR VCTS OVC030CB FM221100 10006KT 3SM BR OVC008 FM221500 04006KT P6SM BKN010
NOTAMs
Click for the latest NOTAMs
NOTAMs are issued by the DoD/FAA and will open in a separate window not controlled by AirNav.

 

 
 

Would you like to see your business listed on this page?

 If your business provides an interesting product or service to pilots, flight crews, aircraft, or users of the Bowman Airstrip Ultralight Flightpark, you should consider listing it here.  To start the listing process, click on the button below
 
Add a business
 

Other Pages about Bowman Airstrip Ultralight Flightpark

Update a link
 
Copyright © AirNav, LLC. All rights reserved. Privacy Policy  Contact